Time;durP1;ratioP1;P1;durP2;ratioP2;P2;SDS_P1;SDS_P2;PMS_P1;PMS_P2;Temp;Humidity;BMP_temperature;BMP_pressure;BME280_temperature;BME280_humidity;BME280_pressure;Samples;Min_cycle;Max_cycle;Signal;HPM_P1;HPM_P2
2023/08/11 00:01:17;;;;;;;;;;;;;;;12.20;100.00;97763.44;110444;1241;69143;-70
2023/08/11 00:03:46;;;;;;;;;;;;;;;12.17;100.00;97763.89;110472;1241;67397;-69
2023/08/11 00:06:16;;;;;;;;;;;;;;;12.17;100.00;97765.10;110484;1241;59660;-68
2023/08/11 00:08:48;;;;;;;;;;;;;;;12.14;100.00;97766.31;110574;1241;59689;-68
2023/08/11 00:11:18;;;;;;;;;;;;;;;12.11;100.00;97760.27;110389;1242;70605;-70
2023/08/11 00:13:50;;;;;;;;;;;;;;;12.10;100.00;97758.79;110491;1242;69120;-69
2023/08/11 00:16:21;;;;;;;;;;;;;;;12.08;100.00;97756.45;110349;1242;69280;-69
2023/08/11 00:18:50;;;;;;;;;;;;;;;12.08;100.00;97758.43;110482;1242;59669;-69
2023/08/11 00:21:20;;;;;;;;;;;;;;;12.05;100.00;97759.32;110534;1241;59669;-69
2023/08/11 00:23:50;;;;;;;;;;;;;;;12.02;100.00;97755.76;110452;1239;71293;-70
2023/08/11 00:26:20;;;;;;;;;;;;;;;11.87;100.00;97756.81;110429;1242;68549;-70
2023/08/11 00:28:50;;;;;;;;;;;;;;;11.78;100.00;97756.01;110230;1243;68515;-70
2023/08/11 00:31:21;;;;;;;;;;;;;;;11.73;100.00;97757.06;110251;1242;59707;-70
2023/08/11 00:33:53;;;;;;;;;;;;;;;11.69;100.00;97756.11;110558;1242;59679;-70
2023/08/11 00:36:22;;;;;;;;;;;;;;;11.66;100.00;97754.74;110636;1242;70442;-70
2023/08/11 00:38:53;;;;;;;;;;;;;;;11.63;100.00;97752.75;110627;1243;69249;-70
2023/08/11 00:41:24;;;;;;;;;;;;;;;11.60;100.00;97752.95;110439;1242;69097;-71
2023/08/11 00:43:55;;;;;;;;;;;;;;;11.57;100.00;97753.34;110261;1242;60084;-68
2023/08/11 00:46:24;;;;;;;;;;;;;;;11.62;100.00;97754.86;110418;1241;59605;-70
2023/08/11 00:48:55;;;;;;;;;;;;;;;11.66;100.00;97751.77;110342;1242;70644;-70
2023/08/11 00:51:26;;;;;;;;;;;;;;;11.63;100.00;97752.35;110495;1244;68581;-69
2023/08/11 00:53:56;;;;;;;;;;;;;;;11.61;100.00;97751.51;110433;1242;69274;-69
2023/08/11 00:56:26;;;;;;;;;;;;;;;11.58;100.00;97750.60;110507;1241;59685;-70
2023/08/11 00:58:58;;;;;;;;;;;;;;;11.57;100.00;97747.40;110474;1241;59649;-70
2023/08/11 01:01:28;;;;;;;;;;;;;;;11.55;100.00;97747.71;110658;1241;72028;-70
2023/08/11 01:04:04;;;;;;;;;;;;;;;11.53;100.00;97748.24;110638;1240;68615;-70
2023/08/11 01:06:38;;;;;;;;;;;;;;;11.51;100.00;97748.39;110371;1241;68413;-69
2023/08/11 01:09:28;;;;;;;;;;;;;;;11.41;100.00;97752.24;110438;1243;59729;-69
2023/08/11 01:12:17;;;;;;;;;;;;;;;11.29;100.00;97752.20;110568;1241;59628;-69
2023/08/11 01:14:54;;;;;;;;;;;;;;;11.28;100.00;97750.21;110545;1241;71329;-69
2023/08/11 01:17:24;;;;;;;;;;;;;;;11.25;100.00;97752.52;110538;1241;69110;-69
2023/08/11 01:19:55;;;;;;;;;;;;;;;11.23;100.00;97753.27;110428;1241;69406;-69
2023/08/11 01:22:28;;;;;;;;;;;;;;;11.18;100.00;97751.73;110446;1241;59735;-69
2023/08/11 01:24:58;;;;;;;;;;;;;;;11.20;100.00;97751.55;110432;1241;59728;-69
2023/08/11 01:27:29;;;;;;;;;;;;;;;11.18;100.00;97748.21;110354;1240;71760;-69
2023/08/11 01:29:59;;;;;;;;;;;;;;;11.16;100.00;97744.89;110546;1241;69212;-68
2023/08/11 01:32:30;;;;;;;;;;;;;;;11.17;100.00;97742.21;110181;1245;69218;-69
2023/08/11 01:35:05;;;;;;;;;;;;;;;11.18;100.00;97742.98;110302;1243;59738;-69
2023/08/11 01:37:35;;;;;;;;;;;;;;;11.22;100.00;97743.80;110415;1241;60068;-69
2023/08/11 01:40:13;;;;;;;;;;;;;;;11.31;100.00;97745.04;110528;1240;71358;-69
2023/08/11 01:42:44;;;;;;;;;;;;;;;11.30;100.00;97748.59;110643;1241;69205;-69
2023/08/11 01:45:23;;;;;;;;;;;;;;;11.27;100.00;97753.22;110454;1241;69154;-69
2023/08/11 01:47:54;;;;;;;;;;;;;;;11.22;100.00;97752.65;110497;1241;59695;-68
2023/08/11 01:50:27;;;;;;;;;;;;;;;11.19;100.00;97756.55;110440;1241;59679;-71
2023/08/11 01:52:57;;;;;;;;;;;;;;;11.17;100.00;97754.23;110231;1240;72013;-68
2023/08/11 01:55:28;;;;;;;;;;;;;;;11.13;100.00;97757.85;110403;1242;69239;-69
2023/08/11 01:58:00;;;;;;;;;;;;;;;11.07;100.00;97752.19;110203;1242;69420;-69
2023/08/11 02:00:31;;;;;;;;;;;;;;;11.02;100.00;97747.42;110346;1241;59699;-68
2023/08/11 02:03:02;;;;;;;;;;;;;;;10.96;100.00;97747.13;110245;1242;59701;-68
2023/08/11 02:05:35;;;;;;;;;;;;;;;10.92;100.00;97747.42;110353;1248;70834;-69
2023/08/11 02:08:08;;;;;;;;;;;;;;;10.89;100.00;97749.73;110521;1241;68448;-69
2023/08/11 02:10:41;;;;;;;;;;;;;;;10.86;100.00;97749.06;110436;1241;69301;-70
2023/08/11 02:13:13;;;;;;;;;;;;;;;10.86;100.00;97752.19;110460;1241;59691;-70
2023/08/11 02:15:43;;;;;;;;;;;;;;;10.85;100.00;97756.60;110407;1241;59647;-70
2023/08/11 02:18:14;;;;;;;;;;;;;;;10.83;100.00;97760.10;110407;1240;70598;-69
2023/08/11 02:20:47;;;;;;;;;;;;;;;10.68;100.00;97760.05;110236;1242;69602;-69
2023/08/11 02:23:18;;;;;;;;;;;;;;;10.60;100.00;97760.57;110465;1241;69298;-69
2023/08/11 02:25:50;;;;;;;;;;;;;;;10.58;100.00;97764.70;110255;1242;59739;-70
2023/08/11 02:28:20;;;;;;;;;;;;;;;10.57;100.00;97768.77;110424;1241;59627;-68
2023/08/11 02:30:52;;;;;;;;;;;;;;;10.58;100.00;97769.59;110387;1241;70645;-70
2023/08/11 02:33:23;;;;;;;;;;;;;;;10.69;100.00;97773.02;110490;1244;69237;-71
2023/08/11 02:35:54;;;;;;;;;;;;;;;10.74;100.00;97773.80;110371;1248;69676;-71
2023/08/11 02:38:26;;;;;;;;;;;;;;;10.71;100.00;97776.02;110358;1242;59952;-70
2023/08/11 02:40:57;;;;;;;;;;;;;;;10.73;100.00;97773.53;110245;1242;59680;-69
2023/08/11 02:43:28;;;;;;;;;;;;;;;10.73;100.00;97774.73;110493;1240;71373;-69
2023/08/11 02:45:59;;;;;;;;;;;;;;;10.58;100.00;97776.25;110455;1239;69191;-69
2023/08/11 02:48:30;;;;;;;;;;;;;;;10.52;100.00;97774.21;110490;1239;69268;-69
2023/08/11 02:51:02;;;;;;;;;;;;;;;10.50;100.00;97772.27;110498;1241;59696;-69
2023/08/11 02:53:33;;;;;;;;;;;;;;;10.46;100.00;97770.58;110429;1241;59710;-69
2023/08/11 02:56:06;;;;;;;;;;;;;;;10.43;100.00;97767.95;110186;1244;70645;-69
2023/08/11 02:58:37;;;;;;;;;;;;;;;10.41;100.00;97770.38;110483;1241;69227;-71
2023/08/11 03:01:06;;;;;;;;;;;;;;;10.37;100.00;97768.77;110362;1241;69129;-71
2023/08/11 03:03:34;;;;;;;;;;;;;;;10.34;100.00;97776.13;110527;1241;59703;-69
2023/08/11 03:06:05;;;;;;;;;;;;;;;10.30;100.00;97777.41;110501;1241;59652;-70
2023/08/11 03:08:36;;;;;;;;;;;;;;;10.29;100.00;97774.70;110254;1241;71752;-70
2023/08/11 03:11:10;;;;;;;;;;;;;;;10.30;100.00;97773.23;110409;1241;68545;-69
2023/08/11 03:13:43;;;;;;;;;;;;;;;10.30;100.00;97773.19;110199;1242;68289;-69
2023/08/11 03:16:13;;;;;;;;;;;;;;;10.34;100.00;97767.55;110245;1242;59749;-70
2023/08/11 03:18:44;;;;;;;;;;;;;;;10.33;100.00;97772.82;110271;1242;59681;-70
2023/08/11 03:21:15;;;;;;;;;;;;;;;10.33;100.00;97771.13;110293;1242;71414;-70
2023/08/11 03:23:50;;;;;;;;;;;;;;;10.32;100.00;97769.63;110390;1240;68365;-69
2023/08/11 03:26:21;;;;;;;;;;;;;;;10.30;100.00;97767.65;110246;1242;69329;-69
2023/08/11 03:28:51;;;;;;;;;;;;;;;10.28;100.00;97765.16;110201;1242;59789;-69
2023/08/11 03:31:23;;;;;;;;;;;;;;;10.25;100.00;97758.27;110241;1242;59750;-69
2023/08/11 03:33:54;;;;;;;;;;;;;;;10.26;100.00;97762.17;110264;1242;71333;-69
2023/08/11 03:36:26;;;;;;;;;;;;;;;10.29;100.00;97755.19;110385;1239;69438;-69
2023/08/11 03:38:57;;;;;;;;;;;;;;;10.39;100.00;97755.91;110244;1242;69244;-69
2023/08/11 03:41:28;;;;;;;;;;;;;;;10.38;100.00;97757.40;110440;1240;59747;-69
2023/08/11 03:43:59;;;;;;;;;;;;;;;10.32;100.00;97760.41;110239;1242;59675;-69
2023/08/11 03:46:30;;;;;;;;;;;;;;;10.30;100.00;97760.64;110232;1242;71368;-68
2023/08/11 03:49:00;;;;;;;;;;;;;;;10.33;100.00;97766.78;110240;1243;68719;-71
2023/08/11 03:51:30;;;;;;;;;;;;;;;10.33;100.00;97763.42;110337;1241;69354;-71
2023/08/11 03:54:02;;;;;;;;;;;;;;;10.35;100.00;97762.95;110541;1241;59792;-69
2023/08/11 03:56:34;;;;;;;;;;;;;;;10.38;100.00;97766.56;110299;1244;59792;-69
2023/08/11 03:59:05;;;;;;;;;;;;;;;10.44;100.00;97767.21;110265;1242;71307;-69
2023/08/11 04:01:35;;;;;;;;;;;;;;;10.44;100.00;97770.52;110361;1242;69122;-68
2023/08/11 04:04:07;;;;;;;;;;;;;;;10.46;100.00;97769.90;110228;1246;68721;-69
2023/08/11 04:06:37;;;;;;;;;;;;;;;10.53;100.00;97771.73;110228;1242;59693;-69
2023/08/11 04:09:08;;;;;;;;;;;;;;;10.58;100.00;97769.78;110324;1241;59705;-69
2023/08/11 04:11:40;;;;;;;;;;;;;;;10.65;100.00;97771.25;110322;1241;71206;-69
2023/08/11 04:14:09;;;;;;;;;;;;;;;10.74;100.00;97774.30;110207;1242;69313;-70
2023/08/11 04:16:39;;;;;;;;;;;;;;;10.88;100.00;97775.06;110360;1241;69288;-71
2023/08/11 04:19:10;;;;;;;;;;;;;;;11.12;100.00;97776.91;110480;1241;59764;-68
2023/08/11 04:21:40;;;;;;;;;;;;;;;11.36;100.00;97778.06;110247;1242;59678;-71
2023/08/11 04:24:10;;;;;;;;;;;;;;;11.57;100.00;97782.84;110557;1241;70943;-71
2023/08/11 04:26:40;;;;;;;;;;;;;;;11.73;100.00;97782.03;110391;1242;69211;-70
2023/08/11 04:29:10;;;;;;;;;;;;;;;11.87;100.00;97785.07;110690;1241;69413;-71
2023/08/11 04:31:40;;;;;;;;;;;;;;;12.10;100.00;97784.98;110678;1240;59683;-70
2023/08/11 04:34:13;;;;;;;;;;;;;;;12.35;100.00;97782.33;110305;1240;59747;-71
2023/08/11 04:36:44;;;;;;;;;;;;;;;12.59;100.00;97781.16;110309;1241;72443;-70
2023/08/11 04:39:14;;;;;;;;;;;;;;;12.86;100.00;97782.15;110493;1242;69510;-68
2023/08/11 04:41:43;;;;;;;;;;;;;;;13.06;100.00;97782.84;110566;1241;69283;-68
2023/08/11 04:44:12;;;;;;;;;;;;;;;13.17;100.00;97792.12;110581;1241;59676;-68
2023/08/11 04:46:42;;;;;;;;;;;;;;;13.25;100.00;97789.83;110536;1241;59663;-71
2023/08/11 04:49:12;;;;;;;;;;;;;;;13.31;100.00;97790.63;110420;1242;71229;-70
2023/08/11 04:51:42;;;;;;;;;;;;;;;13.56;100.00;97795.80;110310;1242;67661;-71
2023/08/11 04:54:11;;;;;;;;;;;;;;;13.80;100.00;97795.96;110248;1241;68513;-70
2023/08/11 04:56:41;;;;;;;;;;;;;;;14.08;100.00;97800.23;110620;1240;59662;-71
2023/08/11 04:59:12;;;;;;;;;;;;;;;14.37;100.00;97802.77;110320;1240;59744;-71
2023/08/11 05:01:40;;;;;;;;;;;;;;;14.72;100.00;97810.77;110612;1241;70805;-70
2023/08/11 05:04:09;;;;;;;;;;;;;;;15.12;100.00;97811.27;110516;1242;69065;-72
2023/08/11 05:06:38;;;;;;;;;;;;;;;15.54;100.00;97810.30;110607;1241;69586;-71
2023/08/11 05:09:09;;;;;;;;;;;;;;;15.87;100.00;97813.95;110530;1241;59667;-71
2023/08/11 05:11:38;;;;;;;;;;;;;;;16.10;99.89;97819.45;110461;1240;59735;-67
2023/08/11 05:14:07;;;;;;;;;;;;;;;16.25;98.75;97818.95;110482;1241;71256;-71
2023/08/11 05:16:37;;;;;;;;;;;;;;;16.26;97.15;97821.23;110398;1241;68768;-71
2023/08/11 05:19:07;;;;;;;;;;;;;;;16.51;99.25;97823.69;110437;1241;68315;-72
2023/08/11 05:21:39;;;;;;;;;;;;;;;16.58;97.50;97827.09;110518;1241;59671;-72
2023/08/11 05:24:10;;;;;;;;;;;;;;;16.82;99.07;97824.40;110481;1241;59702;-71
2023/08/11 05:26:39;;;;;;;;;;;;;;;16.96;98.46;97824.40;110393;1241;72127;-72
2023/08/11 05:29:09;;;;;;;;;;;;;;;17.17;98.08;97830.16;110281;1241;68369;-71
2023/08/11 05:31:41;;;;;;;;;;;;;;;17.52;98.69;97826.59;110359;1240;69793;-72
2023/08/11 05:34:10;;;;;;;;;;;;;;;17.60;94.62;97827.02;110466;1239;59699;-71
2023/08/11 05:36:39;;;;;;;;;;;;;;;17.77;94.95;97826.33;110359;1241;59761;-68
2023/08/11 05:39:10;;;;;;;;;;;;;;;17.97;90.44;97824.23;110368;1241;71926;-71
2023/08/11 05:41:40;;;;;;;;;;;;;;;17.94;90.12;97828.73;110380;1241;69040;-71
2023/08/11 05:44:09;;;;;;;;;;;;;;;18.16;89.14;97827.48;110490;1241;69856;-70
2023/08/11 05:46:39;;;;;;;;;;;;;;;18.22;89.36;97825.43;110395;1241;59624;-69
2023/08/11 05:49:08;;;;;;;;;;;;;;;18.50;89.68;97826.58;110413;1241;59637;-70
2023/08/11 05:51:37;;;;;;;;;;;;;;;18.86;88.13;97827.27;110525;1241;71958;-69
2023/08/11 05:54:06;;;;;;;;;;;;;;;19.21;85.11;97823.73;110458;1242;69264;-68
2023/08/11 05:56:35;;;;;;;;;;;;;;;19.24;82.63;97825.56;110477;1241;69857;-69
2023/08/11 05:59:05;;;;;;;;;;;;;;;19.20;83.02;97828.95;110470;1239;59766;-70
2023/08/11 06:01:35;;;;;;;;;;;;;;;19.33;82.78;97826.41;110663;1241;59662;-71
2023/08/11 06:04:04;;;;;;;;;;;;;;;19.48;81.41;97828.89;110524;1241;72235;-70
2023/08/11 06:06:32;;;;;;;;;;;;;;;19.59;80.51;97824.51;110517;1241;68513;-69
2023/08/11 06:09:03;;;;;;;;;;;;;;;19.65;80.12;97824.56;110360;1241;69788;-69
2023/08/11 06:11:32;;;;;;;;;;;;;;;19.84;79.91;97829.66;110357;1242;59731;-70
2023/08/11 06:14:02;;;;;;;;;;;;;;;20.19;79.57;97831.95;110674;1241;59691;-69
2023/08/11 06:16:32;;;;;;;;;;;;;;;20.45;77.79;97837.60;110516;1241;70497;-70
2023/08/11 06:19:01;;;;;;;;;;;;;;;20.62;75.42;97837.22;110501;1241;68467;-70
2023/08/11 06:21:31;;;;;;;;;;;;;;;20.73;74.13;97838.53;110476;1241;69283;-70
2023/08/11 06:24:00;;;;;;;;;;;;;;;20.71;72.39;97841.30;110628;1241;59689;-70
2023/08/11 06:26:28;;;;;;;;;;;;;;;20.78;74.41;97844.64;110506;1241;59728;-69
2023/08/11 06:28:57;;;;;;;;;;;;;;;20.61;72.39;97842.94;110511;1241;72016;-70
2023/08/11 06:31:26;;;;;;;;;;;;;;;20.78;73.42;97846.63;110589;1241;68252;-70
2023/08/11 06:33:55;;;;;;;;;;;;;;;21.06;73.56;97851.17;110474;1242;69173;-70
2023/08/11 06:36:24;;;;;;;;;;;;;;;21.34;70.90;97842.64;110391;1241;59687;-69
2023/08/11 06:38:54;;;;;;;;;;;;;;;21.55;70.27;97843.06;110314;1241;59666;-70
2023/08/11 06:41:24;;;;;;;;;;;;;;;21.71;69.52;97841.95;110453;1241;71466;-70
2023/08/11 06:43:53;;;;;;;;;;;;;;;21.94;69.47;97845.39;110588;1241;68627;-67
2023/08/11 06:46:24;;;;;;;;;;;;;;;22.34;69.04;97842.69;110293;1240;69253;-69
2023/08/11 06:48:53;;;;;;;;;;;;;;;22.72;67.32;97840.79;110331;1240;59676;-68
2023/08/11 06:51:22;;;;;;;;;;;;;;;22.76;66.87;97843.86;110469;1241;59639;-69
2023/08/11 06:53:51;;;;;;;;;;;;;;;23.03;65.69;97840.17;110483;1241;72029;-68
2023/08/11 06:56:20;;;;;;;;;;;;;;;23.05;63.80;97840.44;110423;1240;70159;-69
2023/08/11 06:58:51;;;;;;;;;;;;;;;23.15;63.10;97839.33;110290;1241;69255;-68
2023/08/11 07:01:20;;;;;;;;;;;;;;;22.70;63.89;97841.13;110413;1241;59672;-68
2023/08/11 07:03:51;;;;;;;;;;;;;;;22.76;64.97;97840.61;110388;1241;59691;-67
2023/08/11 07:06:20;;;;;;;;;;;;;;;23.19;64.29;97840.55;110346;1240;70642;-68
2023/08/11 07:08:49;;;;;;;;;;;;;;;22.96;62.42;97840.82;110407;1241;69839;-67
2023/08/11 07:11:18;;;;;;;;;;;;;;;22.89;63.80;97841.46;110287;1241;69249;-68
2023/08/11 07:13:47;;;;;;;;;;;;;;;23.10;62.90;97845.44;110305;1242;59734;-70
2023/08/11 07:16:16;;;;;;;;;;;;;;;23.00;62.32;97843.67;110383;1240;59702;-67
2023/08/11 07:18:45;;;;;;;;;;;;;;;22.67;64.42;97843.82;110288;1241;71942;-67
2023/08/11 07:21:14;;;;;;;;;;;;;;;23.11;64.11;97847.27;110282;1240;70260;-70
2023/08/11 07:23:43;;;;;;;;;;;;;;;23.25;62.64;97846.10;110338;1241;69847;-67
2023/08/11 07:26:12;;;;;;;;;;;;;;;23.58;62.51;97848.48;110307;1241;59676;-67
2023/08/11 07:28:41;;;;;;;;;;;;;;;23.78;60.91;97847.23;110345;1242;59672;-67
2023/08/11 07:31:10;;;;;;;;;;;;;;;24.16;59.77;97846.24;110371;1241;71503;-69
2023/08/11 07:33:40;;;;;;;;;;;;;;;23.71;59.84;97846.80;110402;1240;69545;-67
2023/08/11 07:36:09;;;;;;;;;;;;;;;23.10;61.83;97848.80;110288;1247;68274;-67
2023/08/11 07:38:39;;;;;;;;;;;;;;;23.27;61.78;97843.34;110334;1241;59678;-67
2023/08/11 07:41:08;;;;;;;;;;;;;;;23.34;62.17;97841.82;110292;1241;59678;-68
2023/08/11 07:43:37;;;;;;;;;;;;;;;23.18;62.43;97845.36;110305;1241;72259;-67
2023/08/11 07:46:06;;;;;;;;;;;;;;;22.88;62.45;97845.77;110305;1241;68336;-68
2023/08/11 07:48:35;;;;;;;;;;;;;;;22.32;65.28;97844.42;110275;1243;69910;-68
2023/08/11 07:51:04;;;;;;;;;;;;;;;22.22;65.56;97850.08;110399;1241;59686;-68
2023/08/11 07:53:33;;;;;;;;;;;;;;;21.28;69.86;97854.32;110323;1241;59679;-70
2023/08/11 07:56:04;;;;;;;;;;;;;;;21.67;69.50;97857.42;110483;1241;72319;-68
2023/08/11 07:58:34;;;;;;;;;;;;;;;21.93;68.77;97860.20;110355;1242;68111;-67
2023/08/11 08:01:02;;;;;;;;;;;;;;;22.33;67.68;97861.77;110413;1241;70246;-67
2023/08/11 08:03:31;;;;;;;;;;;;;;;21.97;68.50;97857.80;110378;1242;59692;-69
2023/08/11 08:06:04;;;;;;;;;;;;;;;22.05;67.71;97852.00;110322;1241;59753;-68
2023/08/11 08:08:34;;;;;;;;;;;;;;;22.22;67.79;97857.14;110384;1242;71456;-67
2023/08/11 08:11:03;;;;;;;;;;;;;;;22.36;67.98;97859.60;110297;1241;69224;-68
2023/08/11 08:13:32;;;;;;;;;;;;;;;22.22;67.56;97860.48;110304;1241;69534;-70
2023/08/11 08:16:01;;;;;;;;;;;;;;;22.31;67.00;97858.42;110348;1239;59686;-69
2023/08/11 08:18:30;;;;;;;;;;;;;;;22.67;66.24;97861.44;110391;1241;59674;-70
2023/08/11 08:21:00;;;;;;;;;;;;;;;22.96;64.37;97858.82;110369;1241;71420;-69
2023/08/11 08:23:28;;;;;;;;;;;;;;;23.11;64.08;97854.73;110240;1242;69048;-68
2023/08/11 08:25:58;;;;;;;;;;;;;;;23.55;61.83;97853.71;110329;1242;70114;-69
2023/08/11 08:28:27;;;;;;;;;;;;;;;23.20;61.89;97846.67;110216;1241;59773;-67
2023/08/11 08:30:58;;;;;;;;;;;;;;;23.82;60.40;97844.98;110372;1241;59689;-68
2023/08/11 08:33:28;;;;;;;;;;;;;;;23.97;58.54;97839.47;110351;1242;72542;-68
2023/08/11 08:35:57;;;;;;;;;;;;;;;23.89;58.32;97836.70;110634;1241;70008;-68
2023/08/11 08:38:26;;;;;;;;;;;;;;;24.02;56.93;97835.10;110241;1242;69885;-68
2023/08/11 08:40:56;;;;;;;;;;;;;;;24.20;58.06;97837.61;110348;1248;59731;-68
2023/08/11 08:43:25;;;;;;;;;;;;;;;24.67;56.39;97834.59;110184;1249;59732;-68
2023/08/11 08:45:56;;;;;;;;;;;;;;;24.67;54.32;97837.13;110159;1240;70636;-69
2023/08/11 08:48:31;;;;;;;;;;;;;;;24.77;55.52;97835.85;109893;1240;671265;-70
2023/08/11 08:51:00;;;;;;;;;;;;;;;25.09;54.32;97843.86;110328;1241;69872;-67
2023/08/11 08:53:29;;;;;;;;;;;;;;;25.45;54.05;97838.69;110340;1241;59707;-68
2023/08/11 08:56:04;;;;;;;;;;;;;;;25.51;52.73;97833.83;110350;1241;59799;-68
2023/08/11 08:58:33;;;;;;;;;;;;;;;25.75;53.07;97833.43;110335;1241;70627;-66
2023/08/11 09:01:03;;;;;;;;;;;;;;;26.12;52.43;97829.46;110301;1241;69301;-67
2023/08/11 09:03:33;;;;;;;;;;;;;;;26.06;51.59;97833.96;110424;1240;69865;-68
2023/08/11 09:06:03;;;;;;;;;;;;;;;25.30;53.29;97836.27;110283;1241;59678;-67
2023/08/11 09:08:32;;;;;;;;;;;;;;;24.48;56.05;97838.94;110266;1240;59699;-69
2023/08/11 09:11:01;;;;;;;;;;;;;;;24.45;56.60;97833.55;110293;1241;71952;-67
2023/08/11 09:13:33;;;;;;;;;;;;;;;24.75;56.41;97832.86;110256;1242;69437;-65
2023/08/11 09:16:03;;;;;;;;;;;;;;;25.09;55.91;97833.13;110245;1241;69279;-67
2023/08/11 09:18:33;;;;;;;;;;;;;;;25.62;54.43;97825.52;110327;1240;59654;-67
2023/08/11 09:21:03;;;;;;;;;;;;;;;26.16;52.75;97822.55;110298;1242;59686;-67
2023/08/11 09:23:32;;;;;;;;;;;;;;;26.60;51.74;97823.83;110316;1241;71965;-69
2023/08/11 09:26:01;;;;;;;;;;;;;;;26.74;49.26;97824.84;110249;1242;69020;-67
2023/08/11 09:28:30;;;;;;;;;;;;;;;25.82;52.76;97819.35;110219;1242;68955;-67
2023/08/11 09:30:59;;;;;;;;;;;;;;;25.96;52.79;97821.34;110214;1241;60011;-69
2023/08/11 09:33:30;;;;;;;;;;;;;;;26.78;52.21;97818.14;110229;1240;59707;-69
2023/08/11 09:35:59;;;;;;;;;;;;;;;26.58;51.33;97818.19;110199;1242;71358;-69
2023/08/11 09:38:28;;;;;;;;;;;;;;;26.27;51.76;97814.85;110240;1242;68303;-66
2023/08/11 09:41:03;;;;;;;;;;;;;;;26.83;51.43;97809.42;110208;1242;68588;-68
2023/08/11 09:43:31;;;;;;;;;;;;;;;27.35;48.89;97809.05;110174;1242;59721;-68
2023/08/11 09:46:07;;;;;;;;;;;;;;;27.23;49.27;97807.11;110251;1242;59676;-67
2023/08/11 09:48:36;;;;;;;;;;;;;;;27.00;49.43;97808.13;110227;1240;71388;-67
2023/08/11 09:51:10;;;;;;;;;;;;;;;27.69;49.27;97803.53;110187;1241;69323;-66
2023/08/11 09:53:40;;;;;;;;;;;;;;;28.25;47.27;97804.23;110238;1241;69244;-66
2023/08/11 09:56:10;;;;;;;;;;;;;;;27.17;48.76;97804.64;110219;1240;59719;-68
2023/08/11 09:58:42;;;;;;;;;;;;;;;26.58;49.61;97807.72;110178;1241;59991;-68
2023/08/11 10:01:12;;;;;;;;;;;;;;;26.50;50.78;97802.48;110228;1241;71366;-67
2023/08/11 10:03:50;;;;;;;;;;;;;;;26.91;49.42;97801.29;110185;1242;69783;-68
2023/08/11 10:06:23;;;;;;;;;;;;;;;27.10;48.88;97800.14;110204;1242;70231;-68
2023/08/11 10:08:54;;;;;;;;;;;;;;;27.63;47.65;97800.45;110223;1242;59756;-68
2023/08/11 10:11:24;;;;;;;;;;;;;;;26.69;48.82;97798.27;110224;1242;59718;-67
2023/08/11 10:13:56;;;;;;;;;;;;;;;26.51;49.77;97795.50;110221;1242;71945;-69
2023/08/11 10:16:26;;;;;;;;;;;;;;;26.70;49.42;97796.48;110215;1242;69254;-67
2023/08/11 10:18:57;;;;;;;;;;;;;;;27.37;49.33;97790.05;110177;1242;69686;-67
2023/08/11 10:21:26;;;;;;;;;;;;;;;27.37;47.64;97793.04;110157;1240;59684;-68
2023/08/11 10:23:56;;;;;;;;;;;;;;;27.36;49.14;97790.36;110238;1242;59636;-68
2023/08/11 10:26:25;;;;;;;;;;;;;;;27.66;48.79;97789.05;110244;1242;71420;-68
2023/08/11 10:28:54;;;;;;;;;;;;;;;27.92;47.93;97790.59;110231;1242;68807;-67
2023/08/11 10:31:26;;;;;;;;;;;;;;;28.61;47.35;97793.75;110192;1240;69843;-67
2023/08/11 10:33:57;;;;;;;;;;;;;;;29.35;45.01;97788.04;110252;1241;59711;-68
2023/08/11 10:36:26;;;;;;;;;;;;;;;29.08;43.24;97786.51;110223;1242;59630;-69
2023/08/11 10:39:04;;;;;;;;;;;;;;;28.54;42.30;97783.73;110173;1240;71954;-66
2023/08/11 10:41:33;;;;;;;;;;;;;;;28.38;43.55;97782.15;110199;1242;69829;-68
2023/08/11 10:44:04;;;;;;;;;;;;;;;29.02;44.31;97781.23;110255;1242;70233;-68
2023/08/11 10:46:33;;;;;;;;;;;;;;;29.04;41.54;97780.08;110220;1242;59770;-68
2023/08/11 10:49:07;;;;;;;;;;;;;;;29.03;42.14;97773.96;110258;1242;59734;-69
2023/08/11 10:51:37;;;;;;;;;;;;;;;30.06;40.77;97769.76;110266;1240;71962;-67
2023/08/11 10:54:05;;;;;;;;;;;;;;;29.94;40.19;97771.05;110260;1242;69260;-67
2023/08/11 10:56:41;;;;;;;;;;;;;;;29.79;40.05;97765.46;110265;1242;68648;-68
2023/08/11 10:59:22;;;;;;;;;;;;;;;29.82;40.92;97766.66;110259;1241;59741;-68
2023/08/11 11:01:53;;;;;;;;;;;;;;;30.37;40.78;97765.46;110250;1242;59659;-67
2023/08/11 11:04:23;;;;;;;;;;;;;;;30.75;39.16;97769.02;110230;1242;70864;-68
2023/08/11 11:06:52;;;;;;;;;;;;;;;31.44;38.01;97768.55;110215;1242;70195;-66
2023/08/11 11:09:21;;;;;;;;;;;;;;;32.15;37.25;97760.48;110249;1242;69650;-67
2023/08/11 11:11:53;;;;;;;;;;;;;;;32.72;36.88;97761.39;110240;1242;59737;-68
2023/08/11 11:14:22;;;;;;;;;;;;;;;32.35;34.98;97753.33;110242;1241;59699;-68
2023/08/11 11:16:51;;;;;;;;;;;;;;;31.75;33.95;97743.68;110242;1241;71997;-68
2023/08/11 11:19:22;;;;;;;;;;;;;;;31.55;35.01;97739.63;110240;1240;68395;-68
2023/08/11 11:21:51;;;;;;;;;;;;;;;32.40;36.61;97743.00;110195;1240;69605;-68
2023/08/11 11:24:20;;;;;;;;;;;;;;;33.08;34.95;97741.99;110231;1242;59748;-67
2023/08/11 11:26:49;;;;;;;;;;;;;;;33.02;33.50;97740.59;110246;1242;59675;-66
2023/08/11 11:29:23;;;;;;;;;;;;;;;33.43;34.88;97737.41;110212;1242;70515;-67
2023/08/11 11:31:52;;;;;;;;;;;;;;;33.44;34.14;97737.13;110275;1241;69048;-67
2023/08/11 11:34:22;;;;;;;;;;;;;;;33.36;33.84;97742.20;110241;1241;68433;-68
2023/08/11 11:36:51;;;;;;;;;;;;;;;33.06;32.76;97739.73;110257;1242;59689;-68
2023/08/11 11:39:20;;;;;;;;;;;;;;;33.01;32.89;97738.45;110233;1242;60071;-68
2023/08/11 11:41:50;;;;;;;;;;;;;;;33.23;32.43;97733.82;110196;1242;71994;-67
2023/08/11 11:44:19;;;;;;;;;;;;;;;32.71;32.58;97733.86;110226;1241;69612;-68
2023/08/11 11:46:48;;;;;;;;;;;;;;;32.22;34.04;97728.79;110201;1241;69282;-67
2023/08/11 11:49:17;;;;;;;;;;;;;;;32.41;32.57;97726.62;110230;1242;59708;-67
2023/08/11 11:52:00;;;;;;;;;;;;;;;32.12;32.91;97730.73;110242;1241;59754;-68
2023/08/11 11:54:33;;;;;;;;;;;;;;;32.63;32.31;97729.35;110260;1241;72026;-68
2023/08/11 11:57:05;;;;;;;;;;;;;;;32.98;32.32;97728.15;110252;1242;68334;-68
2023/08/11 11:59:40;;;;;;;;;;;;;;;33.47;31.68;97721.04;110248;1242;69924;-67
2023/08/11 12:02:12;;;;;;;;;;;;;;;33.66;31.94;97724.67;110227;1242;59732;-69
2023/08/11 12:04:43;;;;;;;;;;;;;;;33.72;31.83;97722.02;110216;1242;60021;-66
2023/08/11 12:07:41;;;;;;;;;;;;;;;33.53;32.36;97722.44;110230;1241;71821;-66
2023/08/11 12:10:11;;;;;;;;;;;;;;;33.19;32.34;97719.98;110092;1242;69823;-67
2023/08/11 12:12:40;;;;;;;;;;;;;;;32.92;32.46;97721.80;110199;1242;69267;-68
2023/08/11 12:15:10;;;;;;;;;;;;;;;32.37;32.92;97714.00;110218;1242;59666;-68
2023/08/11 12:17:39;;;;;;;;;;;;;;;32.07;32.64;97716.48;110224;1242;59656;-68
2023/08/11 12:20:10;;;;;;;;;;;;;;;31.86;33.19;97714.02;110149;1245;71411;-68
2023/08/11 12:22:38;;;;;;;;;;;;;;;31.86;34.04;97715.52;110182;1240;69041;-68
2023/08/11 12:25:07;;;;;;;;;;;;;;;31.36;34.43;97718.30;110199;1240;68431;-68
2023/08/11 12:27:40;;;;;;;;;;;;;;;31.82;33.40;97715.45;110207;1241;59657;-69
2023/08/11 12:30:10;;;;;;;;;;;;;;;31.33;32.43;97717.98;110230;1247;59676;-67
2023/08/11 12:32:40;;;;;;;;;;;;;;;31.52;32.80;97714.07;110247;1240;71756;-68
2023/08/11 12:35:11;;;;;;;;;;;;;;;31.08;31.36;97711.08;110222;1242;68510;-68
2023/08/11 12:37:42;;;;;;;;;;;;;;;30.59;31.29;97713.11;110167;1241;70265;-67
2023/08/11 12:40:11;;;;;;;;;;;;;;;30.31;32.28;97709.02;110197;1241;59712;-67
2023/08/11 12:42:40;;;;;;;;;;;;;;;30.49;33.78;97709.18;110251;1240;59718;-67
2023/08/11 12:45:11;;;;;;;;;;;;;;;30.64;34.13;97711.64;110203;1241;71388;-67
2023/08/11 12:47:40;;;;;;;;;;;;;;;30.77;33.86;97708.36;110218;1242;69106;-68
2023/08/11 12:50:09;;;;;;;;;;;;;;;30.43;34.14;97711.56;110238;1241;69046;-67